Time;durP1;ratioP1;P1;durP2;ratioP2;P2;SDS_P1;SDS_P2;PMS_P1;PMS_P2;Temp;Humidity;BMP_temperature;BMP_pressure;BME280_temperature;BME280_humidity;BME280_pressure;Samples;Min_cycle;Max_cycle;Signal;HPM_P1;HPM_P2
2023/03/04 00:01:12;;;;;;;31.13;9.40;;;3.50;99.90;;;;;;4992301;28;20133;-71
2023/03/04 00:03:38;;;;;;;26.88;8.27;;;3.50;99.90;;;;;;4972457;28;20064;-72
2023/03/04 00:06:04;;;;;;;28.27;8.05;;;3.50;99.90;;;;;;5008813;28;20351;-71
2023/03/04 00:08:29;;;;;;;25.15;8.07;;;3.50;99.90;;;;;;4991625;28;20052;-72
2023/03/04 00:10:55;;;;;;;26.65;8.15;;;3.50;99.90;;;;;;5008207;28;20054;-71
2023/03/04 00:13:21;;;;;;;27.92;8.18;;;3.60;99.90;;;;;;5008788;28;20056;-72
2023/03/04 00:15:47;;;;;;;21.58;7.07;;;3.60;99.90;;;;;;5004526;28;20425;-71
2023/03/04 00:18:13;;;;;;;32.50;8.35;;;3.70;99.90;;;;;;4991136;28;20288;-71
2023/03/04 00:20:38;;;;;;;29.23;7.20;;;3.70;99.90;;;;;;5008218;28;20322;-71
2023/03/04 00:23:04;;;;;;;24.85;7.28;;;3.70;99.90;;;;;;4991899;28;20066;-71
2023/03/04 00:25:32;;;;;;;26.38;6.63;;;3.70;99.90;;;;;;4975427;28;20141;-71
2023/03/04 00:27:58;;;;;;;24.17;5.95;;;3.80;99.90;;;;;;4993036;28;20054;-71
2023/03/04 00:30:24;;;;;;;28.67;6.38;;;3.80;99.90;;;;;;5008362;28;20049;-71
2023/03/04 00:32:49;;;;;;;22.10;6.40;;;3.70;99.90;;;;;;4990927;28;20505;-72
2023/03/04 00:35:16;;;;;;;27.17;5.50;;;3.80;99.90;;;;;;4975383;28;20072;-72
2023/03/04 00:37:41;;;;;;;24.65;5.78;;;3.80;99.90;;;;;;4991290;28;20050;-71
2023/03/04 00:40:08;;;;;;;28.58;7.20;;;3.80;99.90;;;;;;4992138;28;20042;-71
2023/03/04 00:42:34;;;;;;;26.50;6.15;;;3.90;99.90;;;;;;4975861;28;20620;-73
2023/03/04 00:44:59;;;;;;;32.15;6.03;;;3.90;99.90;;;;;;4985776;28;20050;-72
2023/03/04 00:47:26;;;;;;;32.20;7.18;;;3.90;99.90;;;;;;4974774;28;20081;-72
2023/03/04 00:49:52;;;;;;;32.88;7.18;;;4.00;99.90;;;;;;5008507;28;20054;-72
2023/03/04 00:52:17;;;;;;;31.08;6.25;;;3.90;99.90;;;;;;4975736;28;20080;-72
2023/03/04 00:54:43;;;;;;;28.15;6.10;;;3.90;99.90;;;;;;5008320;28;20132;-73
2023/03/04 00:57:09;;;;;;;23.42;5.85;;;4.00;99.90;;;;;;4976042;28;20064;-71
2023/03/04 00:59:35;;;;;;;29.05;5.90;;;4.00;99.90;;;;;;4991640;28;20184;-72
2023/03/04 01:02:01;;;;;;;23.65;5.88;;;4.00;99.90;;;;;;4991350;28;20046;-71
2023/03/04 01:04:26;;;;;;;27.42;5.72;;;4.00;99.90;;;;;;5009112;28;20042;-72
2023/03/04 01:06:52;;;;;;;22.13;6.68;;;4.00;99.90;;;;;;4987812;28;20069;-72
2023/03/04 01:09:18;;;;;;;32.42;6.82;;;4.10;99.90;;;;;;5008040;28;20041;-72
2023/03/04 01:11:44;;;;;;;22.50;5.57;;;4.10;99.90;;;;;;4991141;28;20050;-72
2023/03/04 01:14:09;;;;;;;26.15;5.30;;;4.10;99.90;;;;;;5008128;28;20196;-71
2023/03/04 01:16:35;;;;;;;20.35;5.22;;;4.10;99.90;;;;;;5007820;28;20046;-72
2023/03/04 01:19:01;;;;;;;23.27;6.13;;;4.20;99.90;;;;;;5005273;28;20054;-72
2023/03/04 01:21:27;;;;;;;24.45;5.00;;;4.20;99.90;;;;;;4959574;28;20109;-71
2023/03/04 01:23:52;;;;;;;19.40;5.28;;;4.20;99.90;;;;;;5006197;28;20328;-70
2023/03/04 01:26:18;;;;;;;22.95;5.25;;;4.20;99.90;;;;;;5007520;28;20076;-71
2023/03/04 01:28:44;;;;;;;20.25;5.68;;;4.20;99.90;;;;;;5008744;28;20085;-71
2023/03/04 01:31:09;;;;;;;24.83;5.05;;;4.20;99.90;;;;;;4989384;28;20120;-71
2023/03/04 01:33:35;;;;;;;31.95;5.47;;;4.20;99.90;;;;;;4991298;28;20049;-71
2023/03/04 01:36:01;;;;;;;27.48;5.82;;;4.20;99.90;;;;;;4975160;28;20057;-71
2023/03/04 01:38:27;;;;;;;25.48;5.60;;;4.20;99.90;;;;;;4990991;28;20053;-71
2023/03/04 01:40:53;;;;;;;29.63;5.78;;;4.20;99.90;;;;;;4991849;28;20147;-71
2023/03/04 01:43:27;;;;;;;20.17;4.75;;;4.20;99.90;;;;;;5007443;28;20054;-71
2023/03/04 01:45:53;;;;;;;27.58;5.07;;;4.20;99.90;;;;;;4992129;28;20052;-73
2023/03/04 01:48:28;;;;;;;23.00;4.55;;;4.20;99.90;;;;;;4994300;28;20433;-72
2023/03/04 01:50:53;;;;;;;31.45;4.82;;;4.20;99.90;;;;;;4992974;28;20050;-72
2023/03/04 01:53:23;;;;;;;20.08;4.53;;;4.30;99.90;;;;;;4994731;28;20445;-71
2023/03/04 01:55:50;;;;;;;23.17;4.50;;;4.30;99.90;;;;;;4995936;28;20046;-72
2023/03/04 01:58:16;;;;;;;20.15;5.45;;;4.30;99.90;;;;;;4994507;28;20057;-72
2023/03/04 02:00:42;;;;;;;24.85;4.72;;;4.30;99.90;;;;;;5010739;28;20402;-71
2023/03/04 02:03:14;;;;;;;29.08;5.65;;;4.30;99.90;;;;;;4994677;28;20417;-71
2023/03/04 02:05:44;;;;;;;23.15;5.32;;;4.30;99.90;;;;;;4975574;28;20125;-71
2023/03/04 02:08:11;;;;;;;19.20;4.18;;;4.30;99.90;;;;;;4978820;28;20482;-71
2023/03/04 02:10:37;;;;;;;24.30;5.30;;;4.30;99.90;;;;;;4977358;28;20050;-72
2023/03/04 02:13:03;;;;;;;26.80;6.57;;;4.30;99.90;;;;;;4994306;28;20100;-72
2023/03/04 02:15:29;;;;;;;27.75;5.32;;;4.30;99.90;;;;;;4990787;28;20137;-70
2023/03/04 02:17:55;;;;;;;21.80;6.07;;;4.30;99.90;;;;;;4993861;28;20125;-72
2023/03/04 02:20:58;;;;;;;21.23;4.85;;;4.30;99.90;;;;;;4990617;28;20078;-72
2023/03/04 02:23:48;;;;;;;17.73;4.22;;;4.40;99.90;;;;;;5008783;28;20050;-72
2023/03/04 02:26:15;;;;;;;22.60;5.22;;;4.40;99.90;;;;;;5004992;28;20076;-72
2023/03/04 02:28:41;;;;;;;19.30;4.68;;;4.40;99.90;;;;;;5009682;28;20042;-71
2023/03/04 02:31:22;;;;;;;29.10;4.88;;;4.30;99.90;;;;;;4994280;28;20045;-72
2023/03/04 02:33:48;;;;;;;22.73;5.43;;;4.40;99.90;;;;;;5010332;28;20069;-72
2023/03/04 02:36:14;;;;;;;19.00;4.30;;;4.40;99.90;;;;;;4977871;28;20611;-72
2023/03/04 02:38:39;;;;;;;19.77;5.90;;;4.40;99.90;;;;;;5013458;28;20060;-72
2023/03/04 02:41:05;;;;;;;26.67;4.90;;;4.40;99.90;;;;;;4977971;28;20584;-71
2023/03/04 02:43:31;;;;;;;31.88;5.20;;;4.40;99.90;;;;;;4976555;28;20529;-71
2023/03/04 02:45:57;;;;;;;27.02;6.20;;;4.40;99.90;;;;;;4990243;28;20089;-71
2023/03/04 02:48:25;;;;;;;23.45;4.68;;;4.40;99.90;;;;;;5008690;28;20076;-73
2023/03/04 02:50:52;;;;;;;18.38;4.63;;;4.40;99.90;;;;;;4987362;28;20104;-72
2023/03/04 02:53:19;;;;;;;28.55;5.38;;;4.40;99.90;;;;;;5010081;28;20144;-71
2023/03/04 02:55:46;;;;;;;21.80;4.10;;;4.40;99.90;;;;;;4993847;28;20050;-71
2023/03/04 02:58:12;;;;;;;21.45;4.43;;;4.40;99.90;;;;;;5004460;28;20489;-71
2023/03/04 03:00:38;;;;;;;19.30;4.95;;;4.50;99.90;;;;;;4992949;28;20057;-71
2023/03/04 03:03:04;;;;;;;19.70;4.30;;;4.40;99.90;;;;;;4993338;28;20060;-71
2023/03/04 03:05:31;;;;;;;18.83;4.50;;;4.40;99.90;;;;;;5009290;28;20042;-71
2023/03/04 03:07:57;;;;;;;22.10;4.55;;;4.40;99.90;;;;;;4977683;28;20050;-72
2023/03/04 03:10:23;;;;;;;21.75;4.60;;;4.50;99.90;;;;;;5009706;28;20486;-72
2023/03/04 03:12:49;;;;;;;20.58;4.75;;;4.50;99.90;;;;;;4993348;28;20042;-72
2023/03/04 03:15:15;;;;;;;24.77;4.88;;;4.50;99.90;;;;;;5008914;28;20437;-72
2023/03/04 03:17:41;;;;;;;24.13;4.10;;;4.50;99.90;;;;;;4992825;28;20085;-72
2023/03/04 03:20:08;;;;;;;20.27;4.70;;;4.50;99.90;;;;;;4992921;28;20050;-72
2023/03/04 03:22:35;;;;;;;16.10;3.72;;;4.50;99.90;;;;;;4993579;28;20125;-71
2023/03/04 03:25:01;;;;;;;17.95;4.50;;;4.50;99.90;;;;;;5002631;28;20041;-72
2023/03/04 03:27:27;;;;;;;17.42;4.25;;;4.40;99.90;;;;;;4993222;28;20045;-71
2023/03/04 03:29:53;;;;;;;18.85;4.38;;;4.50;99.90;;;;;;4961000;28;20413;-69
2023/03/04 03:32:19;;;;;;;23.50;4.22;;;4.40;99.90;;;;;;5005988;28;20052;-69
2023/03/04 03:34:45;;;;;;;17.83;4.13;;;4.40;99.90;;;;;;4992398;28;20046;-70
2023/03/04 03:37:11;;;;;;;17.50;4.15;;;4.50;99.90;;;;;;5009123;28;20045;-71
2023/03/04 03:39:36;;;;;;;18.80;4.00;;;4.50;99.90;;;;;;5009568;28;20049;-71
2023/03/04 03:42:02;;;;;;;21.73;5.30;;;4.50;99.90;;;;;;5008261;28;20037;-70
2023/03/04 03:44:28;;;;;;;18.05;4.32;;;4.50;99.90;;;;;;5008643;28;20129;-70
2023/03/04 03:46:54;;;;;;;13.05;3.63;;;4.50;99.90;;;;;;4976944;28;20049;-69
2023/03/04 03:49:21;;;;;;;25.08;4.70;;;4.50;99.90;;;;;;4991904;28;20120;-70
2023/03/04 03:51:47;;;;;;;21.23;4.68;;;4.50;99.90;;;;;;5009096;28;20046;-72
2023/03/04 03:54:12;;;;;;;19.02;3.72;;;4.40;99.90;;;;;;5008790;28;20053;-71
2023/03/04 03:56:38;;;;;;;11.57;3.75;;;4.50;99.90;;;;;;4992513;28;20037;-70
2023/03/04 03:59:04;;;;;;;22.60;3.85;;;4.50;99.90;;;;;;4991287;28;20050;-71
2023/03/04 04:01:30;;;;;;;13.50;3.97;;;4.50;99.90;;;;;;5009228;28;20418;-71
2023/03/04 04:03:55;;;;;;;15.05;4.40;;;4.50;99.90;;;;;;4992646;28;20144;-71
2023/03/04 04:06:21;;;;;;;20.30;4.50;;;4.40;99.90;;;;;;5005255;28;20141;-72
2023/03/04 04:08:47;;;;;;;20.85;3.58;;;4.50;99.90;;;;;;5008628;28;20050;-71
2023/03/04 04:11:13;;;;;;;23.90;3.88;;;4.40;99.90;;;;;;4975229;28;20088;-71
2023/03/04 04:13:38;;;;;;;20.73;4.22;;;4.40;99.90;;;;;;5006929;28;20497;-71
2023/03/04 04:16:05;;;;;;;14.27;3.45;;;4.40;99.90;;;;;;5008243;28;20250;-70
2023/03/04 04:18:30;;;;;;;13.43;3.97;;;4.40;99.90;;;;;;5007825;28;20096;-70
2023/03/04 04:20:56;;;;;;;17.45;4.18;;;4.40;99.90;;;;;;4991700;28;20073;-72
2023/03/04 04:23:23;;;;;;;16.83;3.20;;;4.40;99.90;;;;;;5008208;28;20331;-70
2023/03/04 04:25:49;;;;;;;19.52;3.33;;;4.40;99.90;;;;;;5008290;28;20354;-71
2023/03/04 04:28:14;;;;;;;12.30;3.47;;;4.40;99.90;;;;;;4991544;28;20061;-71
2023/03/04 04:30:40;;;;;;;15.70;3.22;;;4.40;99.90;;;;;;5007948;28;20046;-70
2023/03/04 04:33:06;;;;;;;12.90;3.67;;;4.40;99.90;;;;;;5007927;28;20049;-72
2023/03/04 04:35:32;;;;;;;14.98;3.20;;;4.40;99.90;;;;;;4991137;28;20071;-70
2023/03/04 04:37:58;;;;;;;12.93;3.05;;;4.40;99.90;;;;;;5007967;28;20042;-71
2023/03/04 04:40:24;;;;;;;13.68;3.40;;;4.40;99.90;;;;;;5007897;28;20403;-70
2023/03/04 04:42:49;;;;;;;22.15;3.90;;;4.40;99.90;;;;;;5007159;28;20042;-70
2023/03/04 04:45:15;;;;;;;11.38;3.33;;;4.40;99.90;;;;;;4992107;28;20046;-71
2023/03/04 04:47:41;;;;;;;9.02;3.00;;;4.40;99.90;;;;;;5008152;28;20370;-70
2023/03/04 04:50:07;;;;;;;17.10;3.20;;;4.40;99.90;;;;;;5008092;28;20120;-72
2023/03/04 04:52:33;;;;;;;12.68;3.22;;;4.40;99.90;;;;;;4991241;28;20045;-70
2023/03/04 04:54:59;;;;;;;12.00;2.70;;;4.40;99.90;;;;;;4991197;28;20060;-71
2023/03/04 04:57:25;;;;;;;19.60;3.17;;;4.40;99.90;;;;;;4992332;28;20058;-71
2023/03/04 04:59:50;;;;;;;16.75;3.80;;;4.40;99.90;;;;;;4991840;28;20042;-72
2023/03/04 05:02:16;;;;;;;17.95;3.95;;;4.40;99.90;;;;;;4990925;28;20458;-71
2023/03/04 05:04:42;;;;;;;12.80;2.70;;;4.40;99.90;;;;;;5007882;28;20137;-70
2023/03/04 05:07:07;;;;;;;16.45;2.90;;;4.40;99.90;;;;;;4975302;28;20064;-71
2023/03/04 05:09:33;;;;;;;15.95;3.00;;;4.40;99.90;;;;;;4991843;28;20478;-70
2023/03/04 05:11:59;;;;;;;18.85;3.30;;;4.40;99.90;;;;;;5004059;28;20060;-72
2023/03/04 05:14:25;;;;;;;12.80;3.20;;;4.30;99.90;;;;;;5006137;28;20518;-71
2023/03/04 05:16:51;;;;;;;22.63;3.65;;;4.30;99.90;;;;;;4991582;28;20117;-70
2023/03/04 05:19:19;;;;;;;11.93;3.00;;;4.40;99.90;;;;;;4975696;28;20041;-71
2023/03/04 05:21:44;;;;;;;14.23;2.75;;;4.40;99.90;;;;;;5007350;28;20052;-71
2023/03/04 05:24:10;;;;;;;18.50;3.33;;;4.30;99.90;;;;;;4979888;28;20513;-70
2023/03/04 05:26:36;;;;;;;20.63;3.00;;;4.40;99.90;;;;;;5010600;28;20351;-70
2023/03/04 05:29:02;;;;;;;18.83;3.85;;;4.40;99.90;;;;;;5011502;28;20489;-70
2023/03/04 05:31:28;;;;;;;13.73;3.30;;;4.40;99.90;;;;;;4979006;28;20128;-71
2023/03/04 05:33:53;;;;;;;15.98;3.50;;;4.30;99.90;;;;;;5006464;28;20085;-71
2023/03/04 05:36:19;;;;;;;15.52;3.92;;;4.40;99.90;;;;;;5011616;28;20042;-71
2023/03/04 05:38:45;;;;;;;16.23;3.30;;;4.30;99.90;;;;;;4992311;28;20480;-71
2023/03/04 05:41:11;;;;;;;13.07;3.78;;;4.40;99.90;;;;;;4978882;28;20462;-71
2023/03/04 05:43:41;;;;;;;17.80;3.30;;;4.30;99.90;;;;;;5011524;28;20049;-71
2023/03/04 05:46:13;;;;;;;14.18;3.40;;;4.30;99.90;;;;;;4980261;28;20074;-71
2023/03/04 05:48:38;;;;;;;14.75;3.67;;;4.30;99.90;;;;;;5011927;28;20054;-71
2023/03/04 05:51:04;;;;;;;16.83;3.08;;;4.30;99.90;;;;;;5010802;28;20054;-70
2023/03/04 05:53:30;;;;;;;14.23;3.72;;;4.30;99.90;;;;;;4994979;28;20037;-71
2023/03/04 05:55:58;;;;;;;10.07;2.63;;;4.30;99.90;;;;;;4978708;28;20056;-70
2023/03/04 05:58:23;;;;;;;17.33;3.58;;;4.30;99.90;;;;;;4995275;28;20054;-72
2023/03/04 06:00:49;;;;;;;14.82;3.30;;;4.30;99.90;;;;;;5010303;28;20080;-70
2023/03/04 06:03:16;;;;;;;10.57;3.60;;;4.30;99.90;;;;;;5011364;28;20410;-71
2023/03/04 06:05:42;;;;;;;15.75;3.55;;;4.30;99.90;;;;;;5010821;28;20158;-69
2023/03/04 06:08:08;;;;;;;18.35;3.25;;;4.20;99.90;;;;;;5009245;28;20058;-71
2023/03/04 06:10:34;;;;;;;9.13;3.22;;;4.30;99.90;;;;;;4994668;28;20443;-70
2023/03/04 06:12:59;;;;;;;19.45;4.20;;;4.20;99.90;;;;;;5009990;28;20058;-71
2023/03/04 06:15:26;;;;;;;11.18;4.55;;;4.20;99.90;;;;;;4994832;28;20134;-71
2023/03/04 06:17:52;;;;;;;14.55;4.25;;;4.20;99.90;;;;;;4995192;28;20057;-71
2023/03/04 06:20:18;;;;;;;13.30;4.53;;;4.20;99.90;;;;;;5004895;28;20513;-73
2023/03/04 06:22:43;;;;;;;20.98;4.97;;;4.10;99.90;;;;;;4994683;28;20450;-71
2023/03/04 06:25:09;;;;;;;18.95;4.80;;;4.20;99.90;;;;;;5007813;28;20041;-70
2023/03/04 06:27:35;;;;;;;20.60;4.80;;;4.20;99.90;;;;;;4994789;28;20133;-71
2023/03/04 06:30:01;;;;;;;17.38;4.35;;;4.10;99.90;;;;;;4993633;28;20046;-72
2023/03/04 06:32:26;;;;;;;18.15;4.75;;;4.10;99.90;;;;;;4992701;28;20088;-71
2023/03/04 06:34:52;;;;;;;19.35;5.68;;;4.20;99.90;;;;;;5009640;28;20681;-71
2023/03/04 06:37:18;;;;;;;21.27;5.13;;;4.20;99.90;;;;;;5010115;28;20050;-71
2023/03/04 06:39:45;;;;;;;16.48;4.47;;;4.20;99.90;;;;;;4992384;28;20061;-71
2023/03/04 06:42:11;;;;;;;17.77;4.70;;;4.10;99.90;;;;;;5010619;28;20046;-71
2023/03/04 06:44:37;;;;;;;16.05;4.85;;;4.10;99.90;;;;;;4962097;28;20049;-72
2023/03/04 06:47:03;;;;;;;19.23;5.20;;;4.10;99.90;;;;;;4994117;28;20496;-70
2023/03/04 06:49:29;;;;;;;17.85;4.13;;;4.10;99.90;;;;;;4991238;28;20050;-71
2023/03/04 06:51:54;;;;;;;13.70;4.22;;;4.10;99.90;;;;;;5011041;28;20531;-71
2023/03/04 06:54:20;;;;;;;10.07;3.45;;;4.10;99.90;;;;;;4991151;28;20441;-72
2023/03/04 06:56:46;;;;;;;17.60;4.35;;;4.10;99.90;;;;;;4989918;28;20038;-71
2023/03/04 06:59:12;;;;;;;16.30;4.40;;;4.10;99.90;;;;;;4993609;28;20050;-71
2023/03/04 07:01:38;;;;;;;14.75;3.90;;;4.10;99.90;;;;;;5010014;28;20096;-71
2023/03/04 07:04:03;;;;;;;19.30;4.35;;;4.10;99.90;;;;;;4975427;28;20050;-71
2023/03/04 07:06:29;;;;;;;14.65;4.22;;;4.10;99.90;;;;;;5009591;28;20046;-72
2023/03/04 07:08:56;;;;;;;19.77;3.92;;;4.10;99.90;;;;;;4993888;28;20121;-72
2023/03/04 07:11:21;;;;;;;21.42;5.00;;;4.10;99.90;;;;;;4993548;28;20061;-71
2023/03/04 07:13:47;;;;;;;17.75;4.45;;;4.20;99.90;;;;;;5005035;28;20054;-71
2023/03/04 07:16:16;;;;;;;17.00;4.60;;;4.20;99.90;;;;;;5009612;28;20054;-71
2023/03/04 07:18:43;;;;;;;14.95;4.35;;;4.20;99.90;;;;;;5004636;28;20482;-72
2023/03/04 07:21:09;;;;;;;13.60;3.83;;;4.20;99.90;;;;;;5009562;28;20072;-71
2023/03/04 07:23:35;;;;;;;15.07;4.20;;;4.20;99.90;;;;;;4976735;28;20467;-71
2023/03/04 07:26:01;;;;;;;13.75;4.15;;;4.30;99.90;;;;;;4990098;28;20052;-71
2023/03/04 07:28:27;;;;;;;15.07;4.38;;;4.30;99.90;;;;;;5009263;28;20434;-70
2023/03/04 07:30:53;;;;;;;14.07;4.15;;;4.30;99.90;;;;;;5008132;28;20096;-70
2023/03/04 07:33:18;;;;;;;16.45;4.63;;;4.30;99.90;;;;;;4976916;28;20482;-71
2023/03/04 07:35:44;;;;;;;13.73;4.78;;;4.30;99.90;;;;;;4992231;28;20049;-70
2023/03/04 07:38:10;;;;;;;22.52;5.40;;;4.30;99.90;;;;;;4976141;28;20060;-70
2023/03/04 07:40:35;;;;;;;14.27;4.15;;;4.20;99.90;;;;;;4976422;28;20046;-71
2023/03/04 07:43:01;;;;;;;16.05;4.45;;;4.30;99.90;;;;;;5006480;28;20469;-70
2023/03/04 07:45:27;;;;;;;13.88;4.32;;;4.30;99.90;;;;;;5008937;28;20179;-71
2023/03/04 07:47:53;;;;;;;14.98;4.32;;;4.30;99.90;;;;;;5009542;28;20038;-70
2023/03/04 07:50:19;;;;;;;17.50;5.18;;;4.30;99.90;;;;;;4992452;28;20135;-71
2023/03/04 07:52:46;;;;;;;12.98;4.80;;;4.30;99.90;;;;;;4991440;28;20073;-71
2023/03/04 07:55:13;;;;;;;16.75;4.55;;;4.30;99.90;;;;;;4993040;28;20042;-71
2023/03/04 07:57:43;;;;;;;15.30;5.05;;;4.30;99.90;;;;;;4975661;28;20444;-72
2023/03/04 08:00:10;;;;;;;15.70;4.53;;;4.30;99.90;;;;;;5007247;28;20112;-71
2023/03/04 08:02:35;;;;;;;19.02;5.88;;;4.30;99.90;;;;;;4992694;28;20050;-71
2023/03/04 08:05:06;;;;;;;13.32;5.53;;;4.40;99.90;;;;;;4990783;28;20073;-70
2023/03/04 08:07:32;;;;;;;20.38;6.20;;;4.40;99.90;;;;;;5009297;28;20045;-71
2023/03/04 08:09:58;;;;;;;11.82;5.25;;;4.40;99.90;;;;;;5007071;28;20706;-70
2023/03/04 08:12:24;;;;;;;14.50;4.90;;;4.50;99.90;;;;;;4992482;28;20046;-72
2023/03/04 08:14:50;;;;;;;17.45;4.70;;;4.50;99.90;;;;;;5008998;28;20053;-71
2023/03/04 08:17:16;;;;;;;16.02;5.38;;;4.50;99.90;;;;;;4991616;28;20062;-72
2023/03/04 08:19:43;;;;;;;13.52;5.50;;;4.60;99.90;;;;;;4975924;28;20529;-71
2023/03/04 08:22:09;;;;;;;11.07;4.75;;;4.60;99.90;;;;;;5008047;28;20073;-72
2023/03/04 08:24:35;;;;;;;13.85;6.10;;;4.50;99.90;;;;;;4973687;28;20085;-71
2023/03/04 08:27:00;;;;;;;20.33;5.60;;;4.60;99.90;;;;;;4992787;28;20128;-71
2023/03/04 08:29:26;;;;;;;20.17;6.53;;;4.50;99.90;;;;;;4993074;28;20050;-72
2023/03/04 08:31:54;;;;;;;17.52;6.93;;;4.50;99.90;;;;;;4987835;28;20646;-70
2023/03/04 08:34:22;;;;;;;16.50;6.50;;;4.50;99.90;;;;;;4992266;28;20042;-72
2023/03/04 08:36:48;;;;;;;18.33;6.68;;;4.50;99.90;;;;;;5007839;28;20136;-71
2023/03/04 08:39:15;;;;;;;19.10;7.22;;;4.50;99.90;;;;;;4992328;28;20136;-71
2023/03/04 08:41:41;;;;;;;17.23;6.50;;;4.50;99.90;;;;;;4975684;28;20049;-71
2023/03/04 08:44:09;;;;;;;20.13;5.07;;;4.60;99.90;;;;;;5006872;28;20041;-71
2023/03/04 08:46:40;;;;;;;17.42;5.95;;;4.60;99.90;;;;;;4970498;28;20054;-72
2023/03/04 08:49:06;;;;;;;13.07;4.75;;;4.70;99.90;;;;;;4986585;28;20381;-72
2023/03/04 08:51:34;;;;;;;10.57;4.18;;;4.80;99.90;;;;;;5005849;28;20458;-71
2023/03/04 08:54:03;;;;;;;10.35;3.13;;;4.90;99.90;;;;;;4991651;28;20053;-71
2023/03/04 08:56:35;;;;;;;10.25;2.90;;;5.10;99.90;;;;;;4988991;28;20451;-70
2023/03/04 08:59:01;;;;;;;12.05;3.80;;;5.20;99.90;;;;;;4996567;28;20050;-70
2023/03/04 09:01:27;;;;;;;14.18;2.58;;;5.10;99.90;;;;;;4976408;28;20042;-71
2023/03/04 09:03:53;;;;;;;9.25;2.25;;;5.10;99.90;;;;;;5011593;28;20042;-70
2023/03/04 09:06:19;;;;;;;14.98;2.80;;;5.20;99.90;;;;;;4996369;28;20465;-71
2023/03/04 09:08:44;;;;;;;9.93;2.55;;;5.30;99.90;;;;;;5008344;28;20042;-71
2023/03/04 09:11:11;;;;;;;15.27;2.70;;;5.30;99.90;;;;;;4996029;28;20060;-70
2023/03/04 09:13:36;;;;;;;11.43;2.40;;;5.40;99.90;;;;;;4979541;28;20505;-71
2023/03/04 09:16:07;;;;;;;9.38;2.22;;;5.40;99.90;;;;;;5010947;28;20049;-71
2023/03/04 09:18:33;;;;;;;12.10;2.55;;;5.40;99.90;;;;;;4996292;28;20466;-71
2023/03/04 09:20:59;;;;;;;11.85;2.72;;;5.40;99.90;;;;;;4994562;28;20041;-71
2023/03/04 09:23:24;;;;;;;9.98;3.05;;;5.40;99.90;;;;;;4994354;28;20038;-70
2023/03/04 09:25:50;;;;;;;9.52;2.88;;;5.40;99.90;;;;;;4978429;28;20037;-70
2023/03/04 09:28:16;;;;;;;10.95;2.30;;;5.40;99.90;;;;;;4978081;28;20042;-71
2023/03/04 09:30:43;;;;;;;10.35;2.30;;;5.40;99.90;;;;;;4978815;28;20488;-70
2023/03/04 09:33:09;;;;;;;9.75;2.70;;;5.50;99.90;;;;;;4995521;28;20041;-71
2023/03/04 09:35:35;;;;;;;12.00;2.70;;;5.50;99.90;;;;;;4977811;28;20088;-71
2023/03/04 09:38:01;;;;;;;9.02;2.50;;;5.50;99.90;;;;;;4962762;28;20413;-71
2023/03/04 09:40:37;;;;;;;12.57;2.72;;;5.50;99.90;;;;;;4992189;28;20042;-71
2023/03/04 09:43:03;;;;;;;16.50;3.00;;;5.50;99.90;;;;;;4996308;28;20054;-70
2023/03/04 09:45:50;;;;;;;15.40;2.42;;;5.60;99.90;;;;;;5011791;28;20077;-70
2023/03/04 09:48:19;;;;;;;16.40;3.05;;;5.50;99.90;;;;;;4959573;28;20161;-71
2023/03/04 09:50:58;;;;;;;10.43;2.97;;;5.50;99.90;;;;;;5011447;28;20461;-71
2023/03/04 09:53:28;;;;;;;12.38;2.67;;;5.50;99.90;;;;;;4995889;28;20469;-71
2023/03/04 09:55:54;;;;;;;10.70;2.60;;;5.60;99.90;;;;;;4974173;28;20073;-71
2023/03/04 09:58:43;;;;;;;17.70;3.05;;;5.70;99.90;;;;;;4978803;28;20108;-71
2023/03/04 10:01:18;;;;;;;15.80;3.03;;;5.70;99.90;;;;;;5011191;28;20347;-71
2023/03/04 10:03:50;;;;;;;9.73;2.47;;;5.70;99.90;;;;;;5012006;28;20042;-70
2023/03/04 10:06:17;;;;;;;12.32;2.72;;;5.70;99.90;;;;;;5010802;28;20402;-71
2023/03/04 10:08:52;;;;;;;10.63;2.28;;;5.70;99.90;;;;;;4994160;28;20136;-71
2023/03/04 10:11:44;;;;;;;15.43;2.85;;;5.60;99.90;;;;;;5027267;28;20421;-71
2023/03/04 10:14:22;;;;;;;10.65;2.75;;;5.60;99.90;;;;;;4979610;28;20046;-72
2023/03/04 10:16:56;;;;;;;6.90;2.38;;;5.60;99.90;;;;;;5009398;28;20085;-74
2023/03/04 10:19:29;;;;;;;11.02;3.08;;;5.60;99.90;;;;;;5011841;28;20045;-72
2023/03/04 10:21:55;;;;;;;5.80;2.13;;;5.80;99.90;;;;;;5009815;28;20045;-72
2023/03/04 10:24:24;;;;;;;8.93;2.60;;;5.80;99.90;;;;;;4961309;28;20096;-70
2023/03/04 10:26:53;;;;;;;;;;;5.80;99.90;;;;;;4995001;28;20053;-71
2023/03/04 10:29:21;;;;;;;10.77;2.70;;;5.70;99.90;;;;;;4978399;28;20000;-71
2023/03/04 10:31:54;;;;;;;7.43;2.70;;;5.80;99.90;;;;;;5010533;28;20050;-73
2023/03/04 10:34:20;;;;;;;12.68;3.05;;;5.70;99.90;;;;;;4975214;28;20052;-71
2023/03/04 10:37:05;;;;;;;7.57;3.08;;;5.60;99.90;;;;;;4994551;28;20046;-70
2023/03/04 10:39:36;;;;;;;12.68;2.53;;;5.60;99.90;;;;;;4995954;28;20097;-70
2023/03/04 10:42:03;;;;;;;12.40;4.13;;;5.70;99.90;;;;;;4992440;28;20042;-71
2023/03/04 10:44:29;;;;;;;14.88;3.10;;;5.60;99.90;;;;;;5010061;28;20073;-71
2023/03/04 10:46:56;;;;;;;17.40;3.03;;;5.60;99.90;;;;;;4977364;28;20041;-71
2023/03/04 10:49:23;;;;;;;15.50;3.35;;;5.50;99.90;;;;;;5010186;28;20046;-72
2023/03/04 10:52:12;;;;;;;15.75;3.35;;;5.40;99.90;;;;;;4993897;28;20041;-71
2023/03/04 10:54:41;;;;;;;11.70;3.33;;;5.60;99.90;;;;;;4977206;28;20049;-70
2023/03/04 10:57:17;;;;;;;15.10;6.32;;;5.70;99.90;;;;;;5026175;28;20076;-70
2023/03/04 10:59:52;;;;;;;22.83;5.43;;;5.80;99.90;;;;;;4977983;28;20410;-70
2023/03/04 11:02:34;;;;;;;13.32;3.05;;;5.90;99.90;;;;;;4993615;28;20048;-71
2023/03/04 11:05:08;;;;;;;15.55;3.40;;;5.80;99.90;;;;;;5005097;28;20129;-70
2023/03/04 11:07:45;;;;;;;14.98;3.22;;;5.80;99.90;;;;;;5009948;28;20042;-71
2023/03/04 11:10:37;;;;;;;13.10;3.90;;;5.80;99.90;;;;;;4993467;28;20064;-70
2023/03/04 11:13:21;;;;;;;12.73;2.75;;;5.50;99.90;;;;;;5003614;28;20124;-70
2023/03/04 11:15:55;;;;;;;17.35;3.15;;;5.50;99.90;;;;;;5011129;28;20420;-71
2023/03/04 11:18:38;;;;;;;11.02;2.83;;;5.70;99.90;;;;;;4994168;28;20053;-70
2023/03/04 11:21:05;;;;;;;19.98;3.10;;;6.10;99.90;;;;;;4992332;28;20439;-71
2023/03/04 11:23:38;;;;;;;15.37;2.70;;;6.00;99.90;;;;;;4976981;28;20041;-70
2023/03/04 11:26:12;;;;;;;10.27;2.58;;;6.00;99.90;;;;;;4961336;28;20080;-71
2023/03/04 11:28:47;;;;;;;16.15;2.97;;;6.00;99.90;;;;;;4987904;28;20397;-71
2023/03/04 11:31:22;;;;;;;16.98;2.63;;;5.80;99.90;;;;;;5009542;28;20050;-70
2023/03/04 11:33:57;;;;;;;11.13;3.22;;;5.70;99.90;;;;;;4977636;28;20123;-71
2023/03/04 11:36:39;;;;;;;7.63;2.10;;;5.80;99.90;;;;;;4976362;28;20042;-71
2023/03/04 11:39:22;;;;;;;14.45;2.00;;;5.70;99.90;;;;;;5009313;28;20529;-70
2023/03/04 11:41:57;;;;;;;3.92;1.33;;;5.40;99.90;;;;;;4962227;28;20075;-70
2023/03/04 11:44:24;;;;;;;10.57;1.77;;;5.40;99.90;;;;;;4993358;28;20080;-70
2023/03/04 11:47:14;;;;;;;9.93;1.83;;;5.40;99.90;;;;;;4992632;28;20084;-70
2023/03/04 11:49:55;;;;;;;9.43;2.05;;;5.40;99.90;;;;;;4963564;28;20045;-70
2023/03/04 11:52:47;;;;;;;9.35;2.88;;;5.40;99.90;;;;;;5008924;28;20038;-71
2023/03/04 11:55:34;;;;;;;11.52;2.45;;;5.60;99.90;;;;;;4989573;28;20151;-70
2023/03/04 11:58:23;;;;;;;5.00;1.50;;;5.80;99.90;;;;;;5008897;28;20046;-71
2023/03/04 12:00:53;;;;;;;5.18;1.05;;;7.10;99.90;;;;;;5007793;28;20132;-71
2023/03/04 12:04:18;;;;;;;10.70;1.70;;;7.50;99.90;;;;;;5008753;28;20042;-70
2023/03/04 12:07:08;;;;;;;10.13;2.55;;;8.10;99.90;;;;;;4985781;28;20424;-70
2023/03/04 12:09:39;;;;;;;9.77;1.70;;;11.00;99.90;;;;;;4987516;28;20058;-72
2023/03/04 12:12:22;;;;;;;8.38;1.95;;;8.80;99.90;;;;;;5001506;28;20037;-70
2023/03/04 12:15:15;;;;;;;4.30;1.20;;;8.20;99.90;;;;;;4974375;28;20042;-71
2023/03/04 12:18:09;;;;;;;11.07;1.98;;;9.20;99.90;;;;;;5008575;28;20062;-71
2023/03/04 12:20:38;;;;;;;8.30;1.70;;;7.90;99.90;;;;;;5008340;28;20042;-70
2023/03/04 12:23:19;;;;;;;9.80;1.80;;;7.20;99.90;;;;;;4991850;28;20136;-71
2023/03/04 12:26:16;;;;;;;8.77;2.25;;;6.90;99.90;;;;;;5008428;28;20397;-70
2023/03/04 12:28:57;;;;;;;9.73;1.63;;;6.40;99.90;;;;;;4991232;28;20064;-71
2023/03/04 12:31:41;;;;;;;8.65;1.60;;;6.30;99.90;;;;;;5007529;28;20060;-69
2023/03/04 12:34:16;;;;;;;7.55;2.10;;;6.40;99.90;;;;;;5007690;28;20046;-69
2023/03/04 12:36:57;;;;;;;13.63;2.05;;;6.40;99.90;;;;;;5009533;28;20129;-70
2023/03/04 12:39:48;;;;;;;8.10;1.77;;;6.40;99.90;;;;;;5005912;28;20046;-71
2023/03/04 12:42:44;;;;;;;10.48;2.53;;;6.60;99.90;;;;;;5008894;28;20046;-71
2023/03/04 12:45:34;;;;;;;7.07;1.88;;;8.70;99.90;;;;;;5006577;28;20052;-70
2023/03/04 12:48:18;;;;;;;9.55;2.03;;;7.90;99.90;;;;;;5003483;28;20118;-70
2023/03/04 12:51:21;;;;;;;13.13;2.10;;;7.30;99.90;;;;;;5009193;28;20050;-71
2023/03/04 12:54:18;;;;;;;10.65;1.80;;;6.90;99.90;;;;;;5008194;28;20490;-69
2023/03/04 12:56:53;;;;;;;8.60;1.42;;;6.70;99.90;;;;;;4996123;28;20045;-71
2023/03/04 12:59:19;;;;;;;5.60;1.48;;;6.50;99.90;;;;;;4976570;28;20088;-70